| time (UTC) | temp C | wind direction | speed KPH | gust KPH | rain 1hr cm | rain 24hr cm | rain mn cm | humidity % | barometer mb |
| 20260903084115 | 16 | 33 | 4.8 | 8.0 | 0.00 | 0.48 | 0.00 | 65 | 858.1 |
| 20260903083503 | 16 | 356 | 3.2 | 6.4 | 0.00 | 0.48 | 0.00 | 63 | 858.1 |
| 20260903082503 | 16 | 351 | 3.2 | 6.4 | 0.00 | 0.48 | 0.00 | 72 | 858.0 |
| 20260903081116 | 15 | 24 | 3.2 | 6.4 | 0.00 | 0.48 | 0.00 | 76 | 857.9 |
| 20260903080503 | 15 | 24 | 1.6 | 4.8 | 0.00 | 0.48 | 0.00 | 77 | 857.9 |
| 20260903075503 | 13 | 3 | 3.2 | 6.4 | 0.00 | 0.48 | 0.00 | 75 | 857.7 |
| 20260903074116 | 13 | 78 | 1.6 | 6.4 | 0.00 | 0.48 | 0.00 | 80 | 857.7 |
| 20260903073502 | 13 | 27 | 0.0 | 4.8 | 0.00 | 0.48 | 0.00 | 81 | 857.6 |
| 20260903072502 | 13 | 118 | 3.2 | 6.4 | 0.00 | 0.48 | 0.00 | 86 | 857.6 |
| 20260903071116 | 12 | 108 | 1.6 | 4.8 | 0.00 | 0.48 | 0.00 | 89 | 857.5 |
| 20260903070503 | 11 | 182 | 1.6 | 3.2 | 0.00 | 0.48 | 0.00 | 94 | 857.3 |
| 20260903065503 | 11 | 161 | 3.2 | 9.7 | 0.00 | 0.48 | 0.00 | 94 | 857.2 |
| 20260903064115 | 11 | 174 | 6.4 | 11.3 | 0.00 | 0.48 | 0.00 | 93 | 857.2 |
| 20260903063503 | 11 | 169 | 8.0 | 12.9 | 0.00 | 0.48 | 0.00 | 93 | 857.2 |
| 20260903062503 | 10 | 177 | 8.0 | 11.3 | 0.00 | 0.48 | 0.00 | 93 | 857.2 |
| 20260903061116 | 10 | 173 | 4.8 | 9.7 | 0.00 | 0.48 | 0.00 | 94 | 857.1 |
| 20260903060503 | 10 | 178 | 4.8 | 8.0 | 0.00 | 0.48 | 0.00 | 94 | 857.1 |
| 20260903055502 | 10 | 164 | 4.8 | 9.7 | 0.00 | 0.48 | 0.00 | 94 | 857.1 |
| 20260903054115 | 10 | 181 | 6.4 | 8.0 | 0.00 | 0.48 | 0.00 | 94 | 857.1 |
| 20260903053503 | 10 | 164 | 4.8 | 6.4 | 0.00 | 0.48 | 0.00 | 95 | 857.0 |
| 20260903052503 | 10 | 175 | 6.4 | 9.7 | 0.00 | 0.48 | 0.00 | 94 | 856.9 |
| 20260903051116 | 10 | 168 | 4.8 | 9.7 | 0.00 | 0.48 | 0.00 | 95 | 856.8 |
| 20260903050502 | 10 | 170 | 3.2 | 9.7 | 0.00 | 0.48 | 0.00 | 94 | 856.8 |
| 20260903045503 | 10 | 176 | 3.2 | 6.4 | 0.00 | 0.48 | 0.00 | 94 | 856.8 |
| 20260903044115 | 10 | 211 | 3.2 | 4.8 | 0.00 | 0.48 | 0.00 | 94 | 856.7 |
| 20260903043502 | 10 | 171 | 4.8 | 8.0 | 0.00 | 0.48 | 0.00 | 94 | 856.8 |
| 20260903042503 | 10 | 181 | 4.8 | 8.0 | 0.00 | 0.48 | 0.00 | 94 | 856.9 |
| 20260903041115 | 10 | 168 | 6.4 | 11.3 | 0.00 | 0.48 | 0.00 | 94 | 856.8 |
| 20260903040503 | 11 | 180 | 8.0 | 11.3 | 0.00 | 0.48 | 0.00 | 95 | 856.8 |
| 20260903035503 | 11 | 186 | 8.0 | 11.3 | 0.00 | 0.48 | 0.00 | 95 | 856.9 |
| 20260903034502 | 11 | 180 | 6.4 | 9.7 | 0.00 | 0.48 | 0.00 | 94 | 857.0 |
| 20260903033502 | 11 | 191 | 4.8 | 8.0 | 0.00 | 0.48 | 0.00 | 95 | 856.9 |
| 20260903032503 | 11 | 157 | 3.2 | 6.4 | 0.00 | 0.48 | 0.00 | 95 | 856.9 |
| 20260903031116 | 11 | 184 | 3.2 | 6.4 | 0.00 | 0.48 | 0.00 | 94 | 857.0 |
| 20260903030503 | 11 | 207 | 3.2 | 4.8 | 0.00 | 0.48 | 0.00 | 94 | 857.0 |
| 20260903025503 | 11 | 190 | 3.2 | 6.4 | 0.00 | 0.48 | 0.00 | 94 | 857.0 |
| 20260903024503 | 11 | 207 | 3.2 | 6.4 | 0.00 | 0.48 | 0.00 | 94 | 856.9 |
| 20260903023503 | 11 | 181 | 4.8 | 6.4 | 0.00 | 0.48 | 0.00 | 94 | 856.9 |
| 20260903022503 | 11 | 217 | 4.8 | 6.4 | 0.00 | 0.48 | 0.00 | 94 | 856.9 |
| 20260903021115 | 12 | 204 | 3.2 | 4.8 | 0.00 | 0.48 | 0.00 | 93 | 857.0 |
| 20260903020503 | 12 | 187 | 4.8 | 6.4 | 0.00 | 0.48 | 0.00 | 94 | 857.1 |
| 20260903015503 | 12 | 219 | 4.8 | 6.4 | 0.00 | 0.48 | 0.00 | 93 | 857.2 |
| 20260903014115 | 12 | 221 | 4.8 | 6.4 | 0.00 | 0.48 | 0.00 | 94 | 857.2 |
| 20260903013502 | 12 | 174 | 4.8 | 9.7 | 0.00 | 0.48 | 0.00 | 93 | 857.2 |
| 20260903012502 | 12 | 174 | 6.4 | 11.3 | 0.00 | 0.48 | 0.00 | 94 | 857.3 |
| 20260903011116 | 12 | 186 | 6.4 | 9.7 | 0.00 | 0.48 | 0.00 | 94 | 857.3 |
| 20260903010503 | 12 | 174 | 6.4 | 9.7 | 0.00 | 0.48 | 0.00 | 94 | 857.3 |
| 20260903005503 | 12 | 196 | 6.4 | 8.0 | 0.00 | 0.48 | 0.00 | 94 | 857.3 |
| 20260903004116 | 12 | 173 | 3.2 | 6.4 | 0.00 | 0.48 | 0.00 | 94 | 857.3 |
| 20260903003503 | 12 | 211 | 4.8 | 6.4 | 0.00 | 0.48 | 0.00 | 94 | 857.3 |
| 20260903002503 | 12 | 167 | 4.8 | 6.4 | 0.00 | 0.48 | 0.00 | 94 | 857.3 |
| 20260903001515 | 13 | 183 | 4.8 | 8.0 | 0.00 | 0.48 | 0.00 | 94 | 857.3 |
| 20260903000502 | 12 | 169 | 3.2 | 6.4 | 0.00 | 0.48 | 0.00 | 94 | 857.3 |
| 20260902235502 | 13 | 219 | 4.8 | 6.4 | 0.00 | 0.48 | 0.00 | 94 | 857.3 |
| 20260902234116 | 13 | 205 | 3.2 | 4.8 | 0.00 | 0.48 | 0.00 | 94 | 857.3 |
| 20260902232502 | 13 | 188 | 4.8 | 6.4 | 0.00 | 0.48 | 0.00 | 94 | 857.4 |
| 20260902231503 | 13 | 174 | 4.8 | 8.0 | 0.00 | 0.48 | 0.00 | 94 | 857.3 |
| 20260902230502 | 13 | 176 | 4.8 | 8.0 | 0.00 | 0.48 | 0.00 | 94 | 857.3 |
| 20260902225503 | 13 | 231 | 3.2 | 6.4 | 0.00 | 0.48 | 0.00 | 93 | 857.3 |
| 20260902224116 | 13 | 263 | 3.2 | 4.8 | 0.00 | 0.48 | 0.00 | 92 | 857.2 |
| 20260902223503 | 13 | 192 | 6.4 | 9.7 | 0.00 | 0.48 | 0.00 | 92 | 857.2 |
| 20260902222503 | 13 | 246 | 6.4 | 9.7 | 0.00 | 0.48 | 0.00 | 93 | 857.2 |
| 20260902221116 | 13 | 204 | 3.2 | 6.4 | 0.00 | 0.48 | 0.00 | 93 | 857.1 |
| 20260902220502 | 13 | 227 | 3.2 | 6.4 | 0.00 | 0.48 | 0.48 | 93 | 857.0 |
| 20260902215502 | 13 | 197 | 6.4 | 11.3 | 0.00 | 0.48 | 0.48 | 92 | 857.0 |
| 20260902214116 | 13 | 175 | 9.7 | 16.1 | 0.00 | 0.48 | 0.48 | 92 | 857.0 |
| 20260902213502 | 13 | 175 | 11.3 | 14.5 | 0.05 | 0.48 | 0.48 | 93 | 857.1 |
| 20260902211116 | 13 | 166 | 9.7 | 16.1 | 0.41 | 0.48 | 0.48 | 91 | 857.1 |
| 20260902210503 | 13 | 179 | 9.7 | 16.1 | 0.48 | 0.48 | 0.48 | 93 | 857.2 |
| 20260902205503 | 13 | 209 | 8.0 | 14.5 | 0.48 | 0.48 | 0.48 | 93 | 857.2 |
| 20260902204117 | 13 | 172 | 6.4 | 12.9 | 0.48 | 0.48 | 0.48 | 92 | 857.2 |
| 20260902203502 | 13 | 208 | 8.0 | 19.3 | 0.48 | 0.48 | 0.48 | 92 | 857.1 |
| 20260902202503 | 13 | 236 | 9.7 | 17.7 | 0.43 | 0.43 | 0.43 | 92 | 857.0 |
| 20260902201116 | 14 | 184 | 9.7 | 16.1 | 0.20 | 0.20 | 0.20 | 87 | 857.2 |
| 20260902200503 | 14 | 158 | 6.4 | 14.5 | 0.08 | 0.08 | 0.08 | 84 | 857.2 |
| 20260902195503 | 15 | 179 | 6.4 | 9.7 | 0.00 | 0.00 | 0.00 | 78 | 856.9 |
| 20260902194116 | 15 | 166 | 4.8 | 9.7 | 0.00 | 0.00 | 0.00 | 77 | 856.8 |
| 20260902193503 | 15 | 153 | 3.2 | 8.0 | 0.00 | 0.00 | 0.00 | 76 | 856.7 |
| 20260902192502 | 15 | 173 | 4.8 | 6.4 | 0.00 | 0.00 | 0.00 | 76 | 856.7 |
| 20260902191116 | 15 | 166 | 3.2 | 4.8 | 0.00 | 0.00 | 0.00 | 77 | 856.6 |
| 20260902190502 | 15 | 156 | 3.2 | 6.4 | 0.00 | 0.00 | 0.00 | 76 | 856.5 |
| 20260902185503 | 15 | 202 | 6.4 | 9.7 | 0.00 | 0.00 | 0.00 | 76 | 856.2 |
| 20260902184116 | 15 | 176 | 6.4 | 9.7 | 0.00 | 0.00 | 0.00 | 76 | 856.2 |
| 20260902183503 | 16 | 164 | 6.4 | 11.3 | 0.00 | 0.00 | 0.00 | 74 | 856.0 |
| 20260902182503 | 16 | 179 | 6.4 | 12.9 | 0.00 | 0.00 | 0.00 | 74 | 855.9 |
| 20260902181117 | 16 | 192 | 9.7 | 12.9 | 0.00 | 0.00 | 0.00 | 74 | 855.7 |
| 20260902180503 | 16 | 192 | 8.0 | 12.9 | 0.00 | 0.00 | 0.00 | 73 | 855.8 |
| 20260902175503 | 16 | 184 | 9.7 | 12.9 | 0.00 | 0.00 | 0.00 | 72 | 855.7 |
| 20260902174116 | 16 | 180 | 8.0 | 12.9 | 0.00 | 0.00 | 0.00 | 73 | 855.6 |
| 20260902173502 | 17 | 184 | 9.7 | 12.9 | 0.00 | 0.00 | 0.00 | 73 | 855.5 |
| 20260902172503 | 17 | 168 | 8.0 | 12.9 | 0.00 | 0.00 | 0.00 | 70 | 855.3 |
| 20260902171116 | 17 | 167 | 6.4 | 11.3 | 0.00 | 0.00 | 0.00 | 70 | 855.3 |
| 20260902170503 | 17 | 168 | 8.0 | 12.9 | 0.00 | 0.00 | 0.00 | 69 | 855.4 |
| 20260902165503 | 18 | 187 | 6.4 | 11.3 | 0.00 | 0.00 | 0.00 | 70 | 855.4 |
| 20260902164116 | 18 | 160 | 6.4 | 12.9 | 0.00 | 0.00 | 0.00 | 68 | 855.5 |
| 20260902163503 | 18 | 182 | 6.4 | 11.3 | 0.00 | 0.00 | 0.00 | 67 | 855.5 |
| 20260902162503 | 18 | 179 | 6.4 | 12.9 | 0.00 | 0.00 | 0.00 | 67 | 855.5 |
| 20260902161116 | 19 | 186 | 6.4 | 14.5 | 0.00 | 0.00 | 0.00 | 65 | 855.4 |
| 20260902160502 | 19 | 227 | 6.4 | 8.0 | 0.00 | 0.00 | 0.00 | 58 | 855.5 |
| 20260902155503 | 20 | 209 | 4.8 | 9.7 | 0.00 | 0.00 | 0.00 | 59 | 855.7 |
| 20260902154116 | 20 | 196 | 3.2 | 8.0 | 0.00 | 0.00 | 0.00 | 56 | 855.8 |
| 20260902153503 | 21 | 206 | 3.2 | 9.7 | 0.00 | 0.00 | 0.00 | 52 | 855.9 |
| 20260902152502 | 22 | 224 | 3.2 | 6.4 | 0.00 | 0.00 | 0.00 | 53 | 856.0 |
| 20260902151116 | 23 | 273 | 4.8 | 11.3 | 0.00 | 0.00 | 0.00 | 46 | 856.2 |
| 20260902150503 | 22 | 339 | 4.8 | 14.5 | 0.00 | 0.00 | 0.00 | 42 | 856.0 |
| 20260902145503 | 22 | 344 | 3.2 | 11.3 | 0.00 | 0.00 | 0.00 | 42 | 856.1 |
| 20260902144116 | 21 | 348 | 6.4 | 14.5 | 0.00 | 0.00 | 0.00 | 45 | 855.9 |
| 20260902143502 | 22 | 344 | 4.8 | 12.9 | 0.00 | 0.00 | 0.00 | 42 | 856.0 |
| 20260902142503 | 21 | 341 | 6.4 | 14.5 | 0.00 | 0.00 | 0.00 | 42 | 856.0 |
| 20260902141116 | 21 | 258 | 0.0 | 8.0 | 0.00 | 0.00 | 0.00 | 48 | 856.0 |
| 20260902140503 | 22 | 33 | 3.2 | 9.7 | 0.00 | 0.00 | 0.00 | 42 | 856.0 |
| 20260902135503 | 22 | 82 | 6.4 | 11.3 | 0.00 | 0.00 | 0.00 | 45 | 856.0 |
| 20260902134115 | 21 | 47 | 8.0 | 17.7 | 0.00 | 0.00 | 0.00 | 44 | 855.9 |
| 20260902133503 | 21 | 44 | 8.0 | 14.5 | 0.00 | 0.00 | 0.00 | 49 | 856.0 |
| 20260902132503 | 22 | 28 | 6.4 | 12.9 | 0.00 | 0.00 | 0.00 | 47 | 856.3 |
| 20260902131116 | 21 | 316 | 4.8 | 17.7 | 0.00 | 0.00 | 0.00 | 49 | 856.1 |
| 20260902130503 | 21 | 284 | 1.6 | 16.1 | 0.00 | 0.00 | 0.00 | 43 | 856.2 |
| 20260902125503 | 21 | 239 | 4.8 | 9.7 | 0.00 | 0.00 | 0.00 | 55 | 856.3 |
| 20260902124115 | 21 | 174 | 0.0 | 6.4 | 0.00 | 0.00 | 0.00 | 54 | 856.2 |
| 20260902123503 | 21 | 31 | 3.2 | 9.7 | 0.00 | 0.00 | 0.00 | 54 | 856.2 |
| 20260902122503 | 21 | 18 | 6.4 | 12.9 | 0.00 | 0.00 | 0.00 | 52 | 856.3 |
| 20260902121116 | 21 | 4 | 4.8 | 11.3 | 0.00 | 0.00 | 0.00 | 49 | 856.4 |
| 20260902120502 | 21 | 7 | 4.8 | 9.7 | 0.00 | 0.00 | 0.00 | 48 | 856.4 |
| 20260902115502 | 21 | 39 | 4.8 | 9.7 | 0.00 | 0.00 | 0.00 | 52 | 856.3 |
| 20260902114116 | 21 | 36 | 4.8 | 11.3 | 0.00 | 0.00 | 0.00 | 56 | 856.5 |
| 20260902113503 | 20 | 28 | 4.8 | 9.7 | 0.00 | 0.00 | 0.00 | 55 | 856.5 |
| 20260902112503 | 20 | 23 | 6.4 | 11.3 | 0.00 | 0.00 | 0.00 | 53 | 856.5 |
| 20260902111116 | 20 | 25 | 4.8 | 11.3 | 0.00 | 0.00 | 0.00 | 55 | 856.6 |
| 20260902110503 | 20 | 33 | 6.4 | 11.3 | 0.00 | 0.00 | 0.00 | 55 | 856.5 |
| 20260902105502 | 20 | 25 | 6.4 | 11.3 | 0.00 | 0.00 | 0.00 | 57 | 856.7 |
| 20260902104116 | 19 | 27 | 4.8 | 9.7 | 0.00 | 0.00 | 0.00 | 58 | 856.9 |
| 20260902103503 | 18 | 350 | 4.8 | 9.7 | 0.00 | 0.00 | 0.00 | 56 | 856.8 |
| 20260902102502 | 18 | 350 | 4.8 | 9.7 | 0.00 | 0.00 | 0.00 | 61 | 856.9 |
| 20260902101116 | 18 | 360 | 4.8 | 11.3 | 0.00 | 0.00 | 0.00 | 62 | 857.0 |
| 20260902100503 | 18 | 13 | 4.8 | 9.7 | 0.00 | 0.00 | 0.00 | 64 | 857.0 |
| 20260902095503 | 17 | 4 | 4.8 | 11.3 | 0.00 | 0.00 | 0.00 | 64 | 856.9 |
| 20260902094116 | 17 | 9 | 4.8 | 9.7 | 0.00 | 0.00 | 0.00 | 67 | 857.1 |
| 20260902093503 | 16 | 20 | 6.4 | 11.3 | 0.00 | 0.00 | 0.00 | 68 | 856.9 |
| 20260902092502 | 16 | 35 | 8.0 | 12.9 | 0.00 | 0.00 | 0.00 | 70 | 856.9 |
| 20260902091115 | 16 | 33 | 6.4 | 12.9 | 0.00 | 0.00 | 0.00 | 71 | 856.9 |
| 20260902090503 | 16 | 30 | 6.4 | 11.3 | 0.00 | 0.00 | 0.00 | 71 | 856.7 |